»·PEaware :: SWA4307 KLAS-KSFO

SWA4307 :: KLAS-KSFO

FLIGHT INFORMATION

Flight Status: Arrived
Operator:
Southwest Airlines
More flights by this operator :: More flights under this callsign
Pilot: Marcelo T. (6927)
Aircraft: BOEING 737-700
(B737)
More flights by this aircraft type
Origin: KLAS McCarran Intl
United States
Destination: KSFO San Francisco Intl
United States
More flights between these airports :: More routes between these airports
Route: SHEAD9 KENNO RUSME ALWYS1
File this flight plan on PilotEdge
Remarks: PBN / A1D1O1S2T1 NAV / RNVD1E1A1 RNP10 DAT / 1FANSP2PDC DOF / 170210 REG / N919WN EET / KZOA0024
Altitude:
(Current/Filed)
F400
Speed:
(Current/Filed)
444kts
Departed: 09-Feb-17 03:36 PM
Arrived: 09-Feb-17 04:51 PM
Distance/Time
Traveled:
359nm/1:15
Distance/Time
To Go:
Arrived

Flight Plot

Page will automatically refresh every two minutes.


Map Options




Map Legend


Flown Route
Filed Route
Departure Airport
Arrival Airport
Navaid (VOR, NDB)
Fix

Horizontal Profiles

Position Reports

Time Latitude Longitude Heading Altitude Ground
Speed
09-Feb-17 15:01 36.079768 -115.145807 334 2189ft 0kts
09-Feb-17 15:02 36.079768 -115.145807 334 2189ft 0kts
09-Feb-17 15:03 36.079768 -115.145807 334 2189ft 0kts
09-Feb-17 15:04 36.079768 -115.145807 334 2189ft 0kts
09-Feb-17 15:05 36.079768 -115.145807 334 2189ft 0kts
09-Feb-17 15:06 36.079768 -115.145807 334 2189ft 0kts
09-Feb-17 15:07 36.079768 -115.145807 334 2189ft 0kts
09-Feb-17 15:08 36.079768 -115.145807 334 2189ft 0kts
09-Feb-17 15:09 36.079768 -115.145807 334 2189ft 0kts
09-Feb-17 15:10 36.079768 -115.145807 334 2189ft 0kts
09-Feb-17 15:11 36.079768 -115.145807 334 2189ft 0kts
09-Feb-17 15:12 36.079768 -115.145807 334 2189ft 0kts
09-Feb-17 15:13 36.079768 -115.145807 334 2189ft 0kts
09-Feb-17 15:14 36.079768 -115.145807 334 2189ft 0kts
09-Feb-17 15:15 36.079768 -115.145807 334 2189ft 0kts
09-Feb-17 15:16 36.079768 -115.145807 334 2189ft 0kts
09-Feb-17 15:17 36.079768 -115.145807 334 2189ft 0kts
09-Feb-17 15:18 36.079768 -115.145807 334 2189ft 0kts
09-Feb-17 15:19 36.079768 -115.145807 334 2189ft 0kts
09-Feb-17 15:20 36.079768 -115.145807 334 2189ft 0kts
09-Feb-17 15:21 36.079291 -115.145545 337 2188ft 2kts
09-Feb-17 15:22 36.078682 -115.145273 348 2188ft 2kts
09-Feb-17 15:23 36.078410 -115.145600 95 2188ft 1kts
09-Feb-17 15:24 36.078419 -115.145714 95 2188ft 0kts
09-Feb-17 15:25 36.078419 -115.145714 95 2188ft 0kts
09-Feb-17 15:26 36.078419 -115.145714 95 2188ft 0kts
09-Feb-17 15:27 36.079062 -115.145031 82 2188ft 2kts
09-Feb-17 15:28 36.078910 -115.144854 177 2188ft 0kts
09-Feb-17 15:29 36.078596 -115.144823 164 2188ft 9kts
09-Feb-17 15:30 36.078268 -115.140267 90 2188ft 12kts
09-Feb-17 15:31 36.078278 -115.134815 89 2188ft 18kts
09-Feb-17 15:32 36.078278 -115.128723 90 2188ft 18kts
09-Feb-17 15:33 36.078291 -115.122959 100 2188ft 12kts
09-Feb-17 15:34 36.077315 -115.121328 151 2188ft 5kts
09-Feb-17 15:35 36.076419 -115.122496 270 2188ft 16kts
09-Feb-17 15:36 36.076144 -115.173719 270 3649ft 173kts
09-Feb-17 15:37 36.073914 -115.246099 250 6205ft 232kts
09-Feb-17 15:38 36.012308 -115.282294 192 7103ft 277kts
09-Feb-17 15:39 35.947331 -115.329156 223 8115ft 278kts
09-Feb-17 15:40 35.894169 -115.399413 243 9010ft 279kts
09-Feb-17 15:41 35.887517 -115.494203 268 12134ft 291kts
09-Feb-17 15:42 35.889652 -115.604372 268 14628ft 338kts
09-Feb-17 15:43 35.891619 -115.707538 268 17371ft 355kts
09-Feb-17 15:44 35.893658 -115.831956 267 19863ft 368kts
09-Feb-17 15:45 35.903004 -115.959900 291 22551ft 391kts
09-Feb-17 15:46 35.977767 -116.063720 311 24841ft 415kts
09-Feb-17 15:47 36.062669 -116.162970 311 26897ft 425kts
09-Feb-17 15:48 36.149841 -116.264180 311 28662ft 435kts
09-Feb-17 15:49 36.224407 -116.350164 311 29972ft 442kts
09-Feb-17 15:50 36.314776 -116.455031 311 31448ft 446kts
09-Feb-17 15:51 36.404498 -116.559888 310 33207ft 440kts
09-Feb-17 15:52 36.493214 -116.663678 310 34681ft 437kts
09-Feb-17 15:53 36.571565 -116.751548 317 35840ft 441kts
09-Feb-17 15:54 36.676136 -116.833066 321 37075ft 441kts
09-Feb-17 15:55 36.797724 -116.925793 320 38342ft 437kts
09-Feb-17 15:56 36.883938 -116.991608 320 39134ft 435kts
09-Feb-17 15:57 36.987091 -117.070418 320 39946ft 434kts
09-Feb-17 15:58 37.090508 -117.149649 320 40036ft 432kts
09-Feb-17 15:59 37.193036 -117.228780 319 40035ft 434kts
09-Feb-17 16:00 37.295188 -117.308778 315 40032ft 430kts
09-Feb-17 16:01 37.386047 -117.403823 311 40036ft 425kts
09-Feb-17 16:02 37.473573 -117.502653 297 40041ft 411kts
09-Feb-17 16:03 37.498304 -117.609165 272 40042ft 390kts
09-Feb-17 16:04 37.511239 -117.744197 271 40039ft 388kts
09-Feb-17 16:05 37.522680 -117.879439 270 40036ft 388kts
09-Feb-17 16:06 37.533817 -118.014437 270 40034ft 388kts
09-Feb-17 16:07 37.544780 -118.149518 270 40031ft 387kts
09-Feb-17 16:08 37.555341 -118.284239 270 40031ft 386kts
09-Feb-17 16:09 37.565649 -118.418739 270 40038ft 386kts
09-Feb-17 16:10 37.575753 -118.552970 269 40055ft 385kts
09-Feb-17 16:11 37.585658 -118.686751 269 40076ft 383kts
09-Feb-17 16:12 37.595415 -118.820649 268 40089ft 382kts
09-Feb-17 16:13 37.603636 -118.935154 268 40088ft 380kts
09-Feb-17 16:14 37.612997 -119.067538 268 40083ft 378kts
09-Feb-17 16:15 37.622173 -119.199386 267 40084ft 377kts
09-Feb-17 16:16 37.631188 -119.331092 267 40080ft 374kts
09-Feb-17 16:17 37.639983 -119.461684 267 40078ft 374kts
09-Feb-17 16:18 37.648612 -119.592009 267 40073ft 372kts
09-Feb-17 16:19 37.657057 -119.721705 266 39171ft 369kts
09-Feb-17 16:20 37.665349 -119.851237 266 38170ft 371kts
09-Feb-17 16:21 37.673500 -119.980843 266 35694ft 370kts
09-Feb-17 16:22 37.681778 -120.110362 266 32950ft 370kts
09-Feb-17 16:23 37.688413 -120.220800 266 31117ft 357kts
09-Feb-17 16:24 37.695620 -120.343778 266 29103ft 350kts
09-Feb-17 16:25 37.691823 -120.468093 256 27003ft 348kts
09-Feb-17 16:26 37.678110 -120.586170 256 24937ft 333kts
09-Feb-17 16:27 37.664693 -120.699372 256 22919ft 321kts
09-Feb-17 16:28 37.651542 -120.810052 255 21043ft 322kts
09-Feb-17 16:29 37.638048 -120.921441 255 19280ft 318kts
09-Feb-17 16:30 37.647760 -121.033123 272 17512ft 321kts
09-Feb-17 16:31 37.667052 -121.139567 273 15822ft 302kts
09-Feb-17 16:32 37.685566 -121.240013 273 14368ft 286kts
09-Feb-17 16:33 37.700836 -121.322267 272 13421ft 270kts
09-Feb-17 16:34 37.717552 -121.414517 273 11453ft 271kts
09-Feb-17 16:35 37.734381 -121.507038 275 10000ft 265kts
09-Feb-17 16:36 37.750644 -121.595862 275 9553ft 261kts
09-Feb-17 16:37 37.766890 -121.685623 275 9111ft 261kts
09-Feb-17 16:38 37.783098 -121.774657 275 8498ft 255kts
09-Feb-17 16:39 37.798759 -121.862287 275 7846ft 258kts
09-Feb-17 16:40 37.813864 -121.947258 274 7201ft 230kts
09-Feb-17 16:41 37.827483 -122.023111 274 6583ft 217kts
09-Feb-17 16:42 37.840768 -122.097815 274 5955ft 217kts
09-Feb-17 16:43 37.852106 -122.161986 274 5409ft 218kts
09-Feb-17 16:44 37.840807 -122.225446 208 4628ft 190kts
09-Feb-17 16:45 37.795427 -122.255476 205 3689ft 178kts
09-Feb-17 16:46 37.754939 -122.282362 203 2796ft 158kts
09-Feb-17 16:47 37.715222 -122.308776 204 1929ft 157kts
09-Feb-17 16:48 37.678645 -122.333076 205 1149ft 138kts
09-Feb-17 16:49 37.645451 -122.354979 205 438ft 134kts
09-Feb-17 16:50 37.615283 -122.375105 207 21ft 50kts
09-Feb-17 16:51 37.613508 -122.379544 297 21ft 6kts
09-Feb-17 16:52 37.613781 -122.381536 209 21ft 8kts
09-Feb-17 16:53 37.611680 -122.382914 208 21ft 7kts
09-Feb-17 16:54 37.610685 -122.384746 323 21ft 6kts
09-Feb-17 16:55 37.611207 -122.386099 281 21ft 8kts
09-Feb-17 16:56 37.613057 -122.386643 29 21ft 10kts
09-Feb-17 16:57 37.613218 -122.386231 106 21ft 0kts

Navigation Log

Ident Type
Flight plan parsing failed, navigation log unavailable